Time;durP1;ratioP1;P1;durP2;ratioP2;P2;SDS_P1;SDS_P2;PMS_P1;PMS_P2;Temp;Humidity;BMP_temperature;BMP_pressure;BME280_temperature;BME280_humidity;BME280_pressure;Samples;Min_cycle;Max_cycle;Signal;HPM_P1;HPM_P2
2021/08/06 00:02:26;;;;;;;;;;;27.10;95.60;;;;;;1835864;77;20181;-88
2021/08/06 00:04:56;;;;;;;;;;;27.10;95.50;;;;;;1901319;75;20240;-88
2021/08/06 00:07:26;;;;;;;;;;;27.10;95.20;;;;;;1902150;75;20161;-88
2021/08/06 00:09:56;;;;;;;;;;;27.10;95.40;;;;;;1896251;75;20169;-88
2021/08/06 00:12:25;;;;;;;;;;;27.10;95.30;;;;;;1901192;75;20317;-88
2021/08/06 00:14:55;;;;;;;;;;;27.10;95.30;;;;;;1911005;74;20221;-88
2021/08/06 00:17:27;;;;;;;;;;;27.20;95.50;;;;;;1919462;74;20495;-88
2021/08/06 00:20:08;;;;;;;;;;;;;;;;;;;;;
2021/08/06 00:22:59;;;;;;;;;;;27.20;95.30;;;;;;1912145;74;20231;-88
2021/08/06 00:25:27;;;;;;;;;;;27.30;95.40;;;;;;1914291;73;20411;-87
2021/08/06 00:27:59;;;;;;;;;;;27.30;95.20;;;;;;1905911;74;20216;-88
2021/08/06 00:30:30;;;;;;;;;;;27.30;95.00;;;;;;1913865;74;20214;-89
2021/08/06 00:33:01;;;;;;;;;;;27.40;95.00;;;;;;1914357;74;20241;-91
2021/08/06 00:35:39;;;;;;;;;;;27.40;94.60;;;;;;1905984;74;20261;-89
2021/08/06 00:38:16;;;;;;;;;;;27.50;94.80;;;;;;1916295;74;20194;-88
2021/08/06 00:40:42;;;;;;;;;;;27.50;94.50;;;;;;1894876;74;20254;-88
2021/08/06 00:43:11;;;;;;;;;;;27.60;94.40;;;;;;1901876;74;20204;-88
2021/08/06 00:45:43;;;;;;;;;;;27.60;94.40;;;;;;1904016;74;20196;-88
2021/08/06 00:48:13;;;;;;;;;;;27.70;94.30;;;;;;1896828;74;20130;-88
2021/08/06 00:50:47;;;;;;;;;;;27.70;94.20;;;;;;1896426;74;20196;-89
2021/08/06 00:53:23;;;;;;;;;;;27.70;93.90;;;;;;1905812;74;20469;-90
2021/08/06 00:55:57;;;;;;;;;;;27.80;93.80;;;;;;1896840;74;20217;-89
2021/08/06 00:58:27;;;;;;;;;;;27.80;93.70;;;;;;1901629;74;20157;-88
2021/08/06 01:00:56;;;;;;;;;;;27.90;93.90;;;;;;1913358;74;20203;-90
2021/08/06 01:03:45;;;;;;;;;;;28.00;93.60;;;;;;1896548;74;20155;-89
2021/08/06 01:06:16;;;;;;;;;;;28.10;93.30;;;;;;1915956;74;20206;-89
2021/08/06 01:08:47;;;;;;;;;;;28.20;93.30;;;;;;1906319;74;20216;-89
2021/08/06 01:11:17;;;;;;;;;;;28.30;92.90;;;;;;1910346;74;20156;-89
2021/08/06 01:13:48;;;;;;;;;;;28.40;92.80;;;;;;1912168;74;20210;-90
2021/08/06 01:16:19;;;;;;;;;;;28.40;92.40;;;;;;1911642;74;20611;-88
2021/08/06 01:18:50;;;;;;;;;;;28.50;92.20;;;;;;1913121;73;20258;-88
2021/08/06 01:21:20;;;;;;;;;;;28.60;92.50;;;;;;1910686;74;20182;-88
2021/08/06 01:23:51;;;;;;;;;;;28.60;92.20;;;;;;1918616;74;20192;-87
2021/08/06 01:26:24;;;;;;;;;;;28.70;92.20;;;;;;1907708;74;20209;-88
2021/08/06 01:28:53;;;;;;;;;;;28.80;91.60;;;;;;1909735;73;20222;-92
2021/08/06 01:31:24;;;;;;;;;;;28.90;91.70;;;;;;1917254;74;20209;-92
2021/08/06 01:33:58;;;;;;;;;;;28.90;91.30;;;;;;1909152;74;20174;-89
2021/08/06 01:36:27;;;;;;;;;;;29.10;91.10;;;;;;1916601;74;20208;-89
2021/08/06 01:38:58;;;;;;;;;;;29.10;90.60;;;;;;1902779;74;20229;-89
2021/08/06 01:41:30;;;;;;;;;;;29.20;90.60;;;;;;1913150;74;20251;-90
2021/08/06 01:44:06;;;;;;;;;;;29.20;90.10;;;;;;1852402;77;20138;-87
2021/08/06 01:46:37;;;;;;;;;;;29.30;90.10;;;;;;1870505;76;20189;-89
2021/08/06 01:49:14;;;;;;;;;;;29.40;90.30;;;;;;1893252;74;20176;-88
2021/08/06 01:51:53;;;;;;;;;;;29.50;89.90;;;;;;1912284;74;20551;-90
2021/08/06 01:54:32;;;;;;;;;;;29.50;89.70;;;;;;1907604;74;20161;-88
2021/08/06 01:57:21;;;;;;;;;;;29.70;89.00;;;;;;1906017;73;20319;-88
2021/08/06 02:00:20;;;;;;;;;;;29.70;89.00;;;;;;1913797;74;20223;-91
2021/08/06 02:02:53;;;;;;;;;;;29.80;88.40;;;;;;1911261;74;20195;-93
2021/08/06 02:05:22;;;;;;;;;;;29.90;88.80;;;;;;1909706;74;20228;-80
2021/08/06 02:07:52;;;;;;;;;;;30.00;88.70;;;;;;1910220;74;20139;-81
2021/08/06 02:10:23;;;;;;;;;;;30.10;88.50;;;;;;1907070;74;20193;-81
2021/08/06 02:12:55;;;;;;;;;;;30.20;87.90;;;;;;1912330;74;20457;-82
2021/08/06 02:15:30;;;;;;;;;;;30.40;86.20;;;;;;1854968;75;20449;-81
2021/08/06 02:18:00;;;;;;;;;;;30.50;86.00;;;;;;1836035;77;20200;-79
2021/08/06 02:20:31;;;;;;;;;;;30.60;85.50;;;;;;1898487;74;20842;-81
2021/08/06 02:23:04;;;;;;;;;;;30.60;84.90;;;;;;1897524;74;20178;-79
2021/08/06 02:25:34;;;;;;;;;;;30.70;84.90;;;;;;1901225;74;20508;-80
2021/08/06 02:28:07;;;;;;;;;;;30.80;84.40;;;;;;1903585;74;20250;-83
2021/08/06 02:30:40;;;;;;;;;;;30.80;84.10;;;;;;1900162;75;20268;-81
2021/08/06 02:33:10;;;;;;;;;;;30.90;84.10;;;;;;1904424;74;20207;-80
2021/08/06 02:35:40;;;;;;;;;;;31.00;83.40;;;;;;1899537;74;20525;-82
2021/08/06 02:38:10;;;;;;;;;;;31.00;83.10;;;;;;1904453;75;20359;-82
2021/08/06 02:40:40;;;;;;;;;;;31.10;82.90;;;;;;1901828;74;20191;-80
2021/08/06 02:43:09;;;;;;;;;;;31.30;82.20;;;;;;1896670;75;20213;-80
2021/08/06 02:45:43;;;;;;;;;;;31.30;82.40;;;;;;1899417;75;20150;-81
2021/08/06 02:48:14;;;;;;;;;;;31.40;81.60;;;;;;1904528;74;20241;-83
2021/08/06 02:50:44;;;;;;;;;;;31.50;80.60;;;;;;1900903;74;20731;-82
2021/08/06 02:53:14;;;;;;;;;;;31.60;80.90;;;;;;1896585;74;20239;-81
2021/08/06 02:55:44;;;;;;;;;;;31.60;80.70;;;;;;1815849;78;20700;-81
2021/08/06 02:58:20;;;;;;;;;;;31.80;79.60;;;;;;1848702;76;20499;-80
2021/08/06 03:00:51;;;;;;;;;;;31.80;80.40;;;;;;1849304;76;20275;-80
2021/08/06 03:03:21;;;;;;;;;;;31.80;79.40;;;;;;1840932;77;20230;-79
2021/08/06 03:05:51;;;;;;;;;;;31.90;78.80;;;;;;1829470;77;20182;-78
2021/08/06 03:08:21;;;;;;;;;;;32.00;79.10;;;;;;1832575;77;20191;-78
2021/08/06 03:10:51;;;;;;;;;;;31.90;79.10;;;;;;1832814;77;20241;-80
2021/08/06 03:13:20;;;;;;;;;;;32.00;78.80;;;;;;1843942;77;20213;-79
2021/08/06 03:15:50;;;;;;;;;;;32.20;78.10;;;;;;1850567;76;20542;-79
2021/08/06 03:18:21;;;;;;;;;;;32.20;78.80;;;;;;1853293;76;20194;-81
2021/08/06 03:20:55;;;;;;;;;;;32.30;77.80;;;;;;1837944;76;20178;-80
2021/08/06 03:23:26;;;;;;;;;;;32.30;77.90;;;;;;1908015;74;20149;-80
2021/08/06 03:25:55;;;;;;;;;;;32.30;77.60;;;;;;1902393;74;20183;-80
2021/08/06 03:28:28;;;;;;;;;;;32.30;78.20;;;;;;1917879;74;20219;-80
2021/08/06 03:30:59;;;;;;;;;;;32.30;78.90;;;;;;1879829;76;20694;-80
2021/08/06 03:33:35;;;;;;;;;;;32.30;79.40;;;;;;1862007;76;20184;-78
2021/08/06 03:36:12;;;;;;;;;;;32.30;78.30;;;;;;1863947;76;20179;-79
2021/08/06 03:38:47;;;;;;;;;;;32.20;78.70;;;;;;1862384;76;20246;-75
2021/08/06 03:41:19;;;;;;;;;;;32.20;78.50;;;;;;1863150;76;20231;-79
2021/08/06 03:43:51;;;;;;;;;;;32.30;78.20;;;;;;1858431;76;20462;-80
2021/08/06 03:46:21;;;;;;;;;;;32.40;77.70;;;;;;1855148;76;20190;-80
2021/08/06 03:48:53;;;;;;;;;;;32.50;76.70;;;;;;1916291;74;20169;-79
2021/08/06 03:51:23;;;;;;;;;;;32.50;77.00;;;;;;1895356;74;20233;-79
2021/08/06 03:53:53;;;;;;;;;;;32.60;76.60;;;;;;1915733;74;20563;-79
2021/08/06 03:56:25;;;;;;;;;;;32.60;75.90;;;;;;1920396;74;20228;-80
2021/08/06 03:58:57;;;;;;;;;;;32.70;75.70;;;;;;1916213;74;20458;-78
2021/08/06 04:01:27;;;;;;;;;;;32.70;75.70;;;;;;1910462;74;20598;-81
2021/08/06 04:03:56;;;;;;;;;;;32.80;76.20;;;;;;1922906;73;20171;-78
2021/08/06 04:06:27;;;;;;;;;;;32.80;75.30;;;;;;1916410;74;20170;-81
2021/08/06 04:08:56;;;;;;;;;;;32.80;75.10;;;;;;1912438;73;20320;-79
2021/08/06 04:11:35;;;;;;;;;;;32.80;75.50;;;;;;1925900;72;20551;-79
2021/08/06 04:14:05;;;;;;;;;;;32.90;74.80;;;;;;1920172;71;20218;-81
2021/08/06 04:16:35;;;;;;;;;;;32.90;75.30;;;;;;1909601;73;20410;-79
2021/08/06 04:19:06;;;;;;;;;;;32.90;75.80;;;;;;1928664;71;20131;-78
2021/08/06 04:21:40;;;;;;;;;;;32.90;75.10;;;;;;1927140;73;20211;-77
2021/08/06 04:24:36;;;;;;;;;;;32.90;75.20;;;;;;1912881;74;20210;-79
2021/08/06 04:27:03;;;;;;;;;;;32.90;74.90;;;;;;1894702;74;20232;-80
2021/08/06 04:29:33;;;;;;;;;;;32.90;75.50;;;;;;1864023;76;20191;-79
2021/08/06 04:32:05;;;;;;;;;;;32.90;74.90;;;;;;1854241;75;20528;-78
2021/08/06 04:34:38;;;;;;;;;;;33.00;75.30;;;;;;1872042;75;20476;-80
2021/08/06 04:37:18;;;;;;;;;;;33.10;73.60;;;;;;1853623;76;20223;-79
2021/08/06 04:39:49;;;;;;;;;;;33.20;84.80;;;;;;1863348;76;20159;-79
2021/08/06 04:42:44;;;;;;;;;;;33.10;74.40;;;;;;1900880;74;20207;-80
2021/08/06 04:45:21;;;;;;;;;;;33.20;74.00;;;;;;1848062;74;20306;-79
2021/08/06 04:47:52;;;;;;;;;;;33.20;74.60;;;;;;1903344;73;20202;-79
2021/08/06 04:50:23;;;;;;;;;;;33.20;74.00;;;;;;1919815;74;20167;-78
2021/08/06 04:52:52;;;;;;;;;;;33.30;73.40;;;;;;1899009;74;20201;-79
2021/08/06 04:55:22;;;;;;;;;;;33.30;74.10;;;;;;1897345;74;20151;-79
2021/08/06 04:57:53;;;;;;;;;;;33.30;73.60;;;;;;1919342;74;20210;-79
2021/08/06 05:00:26;;;;;;;;;;;33.30;74.20;;;;;;1918630;74;20167;-78
2021/08/06 05:02:57;;;;;;;;;;;33.30;73.30;;;;;;1908687;74;20243;-77
2021/08/06 05:05:26;;;;;;;;;;;33.30;74.40;;;;;;1902164;74;20224;-78
2021/08/06 05:07:56;;;;;;;;;;;33.30;73.70;;;;;;1909683;74;20227;-78
2021/08/06 05:10:26;;;;;;;;;;;33.30;73.00;;;;;;1905318;74;20601;-78
2021/08/06 05:12:56;;;;;;;;;;;33.20;73.40;;;;;;1915777;74;20157;-78
2021/08/06 05:15:26;;;;;;;;;;;33.30;72.60;;;;;;1893923;74;20313;-79
2021/08/06 05:17:56;;;;;;;;;;;33.30;72.40;;;;;;1923886;73;20287;-80
2021/08/06 05:20:25;;;;;;;;;;;33.40;73.00;;;;;;1915949;74;20583;-79
2021/08/06 05:22:55;;;;;;;;;;;33.70;72.70;;;;;;1900383;74;20148;-79
2021/08/06 05:25:25;;;;;;;;;;;33.50;80.80;;;;;;1905411;74;20161;-79
2021/08/06 05:27:55;;;;;;;;;;;33.80;83.50;;;;;;1896892;74;20212;-79
2021/08/06 05:30:24;;;;;;;;;;;34.00;83.80;;;;;;1899792;74;20201;-79
2021/08/06 05:32:54;;;;;;;;;;;33.70;79.20;;;;;;1918622;74;20189;-80
2021/08/06 05:35:24;;;;;;;;;;;33.50;80.30;;;;;;1917122;74;20179;-78
2021/08/06 05:37:55;;;;;;;;;;;33.40;83.00;;;;;;1894270;74;20189;-78
2021/08/06 05:40:25;;;;;;;;;;;33.20;85.30;;;;;;1905747;74;20403;-80
2021/08/06 05:42:56;;;;;;;;;;;33.40;80.90;;;;;;1892908;74;20626;-79
2021/08/06 05:45:26;;;;;;;;;;;33.40;79.50;;;;;;1918051;74;20538;-79
2021/08/06 05:47:56;;;;;;;;;;;33.30;82.00;;;;;;1896465;74;20486;-78
2021/08/06 05:50:28;;;;;;;;;;;33.40;79.80;;;;;;1911079;74;20252;-78
2021/08/06 05:52:57;;;;;;;;;;;33.10;79.00;;;;;;1903358;74;20197;-75
2021/08/06 05:55:27;;;;;;;;;;;33.30;79.70;;;;;;1898303;74;20138;-79
2021/08/06 05:57:58;;;;;;;;;;;33.10;79.70;;;;;;1914605;74;20187;-78
2021/08/06 06:00:29;;;;;;;;;;;33.10;79.30;;;;;;1913662;74;20441;-78
2021/08/06 06:03:02;;;;;;;;;;;33.10;79.80;;;;;;1909097;74;20237;-80
2021/08/06 06:05:40;;;;;;;;;;;33.00;80.00;;;;;;1906069;73;20269;-78
2021/08/06 06:08:45;;;;;;;;;;;33.10;80.10;;;;;;1841760;74;20118;-77
2021/08/06 06:11:25;;;;;;;;;;;33.30;80.90;;;;;;1914332;74;20273;-78
2021/08/06 06:14:02;;;;;;;;;;;33.00;80.60;;;;;;1908911;74;20087;-79
2021/08/06 06:16:37;;;;;;;;;;;33.20;82.20;;;;;;1911847;74;20135;-80
2021/08/06 06:19:17;;;;;;;;;;;33.20;85.00;;;;;;1884408;75;20648;-80
2021/08/06 06:21:47;;;;;;;;;;;33.30;76.30;;;;;;1882136;75;20190;-82
2021/08/06 06:24:26;;;;;;;;;;;33.30;76.00;;;;;;1884064;75;20239;-76
2021/08/06 06:27:13;;;;;;;;;;;33.30;76.60;;;;;;1896409;75;20184;-78
2021/08/06 06:29:44;;;;;;;;;;;33.30;75.90;;;;;;1889170;74;20167;-79
2021/08/06 06:32:13;;;;;;;;;;;33.50;75.80;;;;;;1879779;73;20208;-79
2021/08/06 06:34:43;;;;;;;;;;;33.20;75.10;;;;;;1881715;74;20222;-78
2021/08/06 06:37:12;;;;;;;;;;;33.30;75.50;;;;;;1889833;74;20176;-79
2021/08/06 06:39:43;;;;;;;;;;;33.20;74.60;;;;;;1898042;75;20152;-78
2021/08/06 06:42:15;;;;;;;;;;;33.40;74.60;;;;;;1884520;75;20186;-79
2021/08/06 06:44:46;;;;;;;;;;;33.50;72.60;;;;;;1876918;75;20162;-78
2021/08/06 06:47:16;;;;;;;;;;;33.70;73.60;;;;;;1896514;74;20196;-79
2021/08/06 06:49:45;;;;;;;;;;;34.00;74.80;;;;;;1888713;75;20129;-78
2021/08/06 06:52:17;;;;;;;;;;;34.00;74.30;;;;;;1890556;75;20158;-78
2021/08/06 06:54:48;;;;;;;;;;;34.00;74.40;;;;;;1873858;74;20188;-79
2021/08/06 06:57:20;;;;;;;;;;;33.90;69.00;;;;;;1891026;75;20364;-78
2021/08/06 06:59:50;;;;;;;;;;;33.90;69.20;;;;;;1868431;75;20218;-78
2021/08/06 07:02:20;;;;;;;;;;;33.80;69.30;;;;;;1882796;75;20208;-79
2021/08/06 07:05:01;;;;;;;;;;;33.80;68.60;;;;;;1885514;75;20480;-79
2021/08/06 07:07:37;;;;;;;;;;;33.70;69.90;;;;;;1871420;75;20408;-79
2021/08/06 07:10:12;;;;;;;;;;;33.70;70.00;;;;;;1886041;75;20155;-80
2021/08/06 07:12:45;;;;;;;;;;;33.60;70.60;;;;;;1800538;78;20200;-90
2021/08/06 07:15:19;;;;;;;;;;;33.60;71.00;;;;;;1851115;77;20147;-96
2021/08/06 07:17:55;;;;;;;;;;;33.60;70.40;;;;;;1834841;77;20225;-93
2021/08/06 07:20:32;;;;;;;;;;;33.60;71.20;;;;;;1842590;77;20174;-90
2021/08/06 07:23:05;;;;;;;;;;;33.50;70.30;;;;;;1838600;77;20281;-89
2021/08/06 07:25:39;;;;;;;;;;;33.60;69.80;;;;;;1807578;77;20230;-88
2021/08/06 07:28:06;;;;;;;;;;;33.60;70.60;;;;;;1827324;78;20121;-87
2021/08/06 07:30:37;;;;;;;;;;;33.70;70.90;;;;;;1845014;77;20133;-89
2021/08/06 07:33:06;;;;;;;;;;;33.70;70.80;;;;;;1842252;77;20443;-90
2021/08/06 07:35:36;;;;;;;;;;;33.70;70.00;;;;;;1839203;77;20197;-89
2021/08/06 07:38:06;;;;;;;;;;;33.60;70.20;;;;;;1838416;76;20192;-89
2021/08/06 07:40:37;;;;;;;;;;;33.60;71.10;;;;;;1834640;76;20222;-90
2021/08/06 07:43:07;;;;;;;;;;;33.50;70.60;;;;;;1844632;77;20137;-88
2021/08/06 07:45:36;;;;;;;;;;;33.40;70.40;;;;;;1844770;77;20216;-89
2021/08/06 07:48:06;;;;;;;;;;;33.50;71.50;;;;;;1842776;77;20211;-89
2021/08/06 07:50:36;;;;;;;;;;;33.60;71.60;;;;;;1839012;77;20163;-90
2021/08/06 07:53:05;;;;;;;;;;;33.70;70.00;;;;;;1842270;77;20184;-89
2021/08/06 07:55:40;;;;;;;;;;;33.80;69.40;;;;;;1835858;77;20220;-89
2021/08/06 07:58:28;;;;;;;;;;;33.90;69.70;;;;;;1856957;77;20232;-89
2021/08/06 08:01:03;;;;;;;;;;;34.00;69.00;;;;;;1844615;77;20263;-89
2021/08/06 08:03:35;;;;;;;;;;;34.00;68.20;;;;;;1838591;77;20182;-89
2021/08/06 08:06:05;;;;;;;;;;;33.90;68.90;;;;;;1835946;77;20156;-92
2021/08/06 08:08:34;;;;;;;;;;;33.80;69.10;;;;;;1839014;77;20191;-89
2021/08/06 08:11:10;;;;;;;;;;;33.80;69.60;;;;;;1842300;77;20132;-91
2021/08/06 08:13:40;;;;;;;;;;;33.80;70.30;;;;;;1844171;77;20132;-87
2021/08/06 08:16:13;;;;;;;;;;;33.80;70.70;;;;;;1838613;76;20191;-88
2021/08/06 08:18:44;;;;;;;;;;;33.90;70.10;;;;;;1831438;77;20474;-88
2021/08/06 08:21:14;;;;;;;;;;;33.90;69.60;;;;;;1835861;77;20229;-86
2021/08/06 08:23:44;;;;;;;;;;;33.90;69.50;;;;;;1902792;74;20205;-86
2021/08/06 08:26:15;;;;;;;;;;;34.00;69.40;;;;;;1905816;75;20152;-87
2021/08/06 08:28:44;;;;;;;;;;;34.00;68.50;;;;;;1900400;74;20172;-88
2021/08/06 08:31:15;;;;;;;;;;;;;;;;;;1899380;75;20205;-87
2021/08/06 08:33:45;;;;;;;;;;;;;;;;;;1899978;73;20481;-88
2021/08/06 08:36:15;;;;;;;;;;;;;;;;;;1898495;75;20165;-87
2021/08/06 08:38:50;;;;;;;;;;;;;;;;;;1897376;74;20194;-88
2021/08/06 08:41:23;;;;;;;;;;;;;;;;;;1896296;74;20249;-87
2021/08/06 08:43:52;;;;;;;;;;;;;;;;;;1902110;75;20167;-85
2021/08/06 08:46:23;;;;;;;;;;;34.10;69.30;;;;;;1896620;75;20150;-90
2021/08/06 08:49:00;;;;;;;;;;;34.10;70.30;;;;;;1900777;75;20202;-89
2021/08/06 08:51:30;;;;;;;;;;;34.10;71.30;;;;;;1898446;75;20235;-89
2021/08/06 08:54:02;;;;;;;;;;;33.80;74.20;;;;;;1896051;75;20189;-89
2021/08/06 08:56:31;;;;;;;;;;;33.90;77.30;;;;;;1902501;75;20239;-89
2021/08/06 08:59:01;;;;;;;;;;;33.70;69.50;;;;;;1897405;75;20162;-89
2021/08/06 09:01:32;;;;;;;;;;;33.80;76.10;;;;;;1892534;75;21066;-90
2021/08/06 09:04:03;;;;;;;;;;;33.50;75.30;;;;;;1876272;74;20482;-89
2021/08/06 09:06:34;;;;;;;;;;;33.60;74.90;;;;;;1897557;75;20232;-89
2021/08/06 09:09:06;;;;;;;;;;;33.80;74.80;;;;;;1880436;74;20249;-85
2021/08/06 09:11:36;;;;;;;;;;;33.70;74.10;;;;;;1903653;74;20480;-88
2021/08/06 09:14:07;;;;;;;;;;;33.80;74.20;;;;;;1903826;74;20202;-89
2021/08/06 09:16:36;;;;;;;;;;;33.70;73.90;;;;;;1899925;74;20202;-87
2021/08/06 09:19:10;;;;;;;;;;;33.70;74.40;;;;;;1898225;75;20208;-90
2021/08/06 09:21:41;;;;;;;;;;;33.80;74.80;;;;;;1907117;75;20216;-89
2021/08/06 09:24:11;;;;;;;;;;;33.90;73.70;;;;;;1863016;76;20178;-91
2021/08/06 09:26:48;;;;;;;;;;;33.80;73.90;;;;;;1838657;77;20530;-89
2021/08/06 09:29:21;;;;;;;;;;;33.80;73.30;;;;;;1836891;77;20203;-90
2021/08/06 09:31:59;;;;;;;;;;;33.80;72.90;;;;;;1821879;77;20248;-88
2021/08/06 09:34:40;;;;;;;;;;;;;;;;;;;;;
2021/08/06 09:37:10;;;;;;;;;;;33.80;72.70;;;;;;1876681;75;20213;-90
2021/08/06 09:39:43;;;;;;;;;;;33.60;70.70;;;;;;1919033;75;20203;-90
2021/08/06 09:42:14;;;;;;;;;;;33.50;70.50;;;;;;1887991;75;20189;-88
2021/08/06 09:45:00;;;;;;;;;;;33.60;69.60;;;;;;1883579;75;20222;-89
2021/08/06 09:47:30;;;;;;;;;;;33.80;69.00;;;;;;1898281;75;20185;-88
2021/08/06 09:50:01;;;;;;;;;;;33.60;68.40;;;;;;1891824;75;20236;-90
2021/08/06 09:52:32;;;;;;;;;;;33.70;70.30;;;;;;1904094;75;20167;-91
2021/08/06 09:55:04;;;;;;;;;;;33.60;71.00;;;;;;1914887;74;20399;-88
2021/08/06 09:57:39;;;;;;;;;;;33.50;71.50;;;;;;1906411;75;20242;-89
2021/08/06 10:00:05;;;;;;;;;;;33.40;71.60;;;;;;1900755;74;20237;-88
2021/08/06 10:02:35;;;;;;;;;;;33.30;71.60;;;;;;1903541;75;20278;-87
2021/08/06 10:05:08;;;;;;;;;;;33.30;71.90;;;;;;1898359;75;20182;-88
2021/08/06 10:07:38;;;;;;;;;;;33.30;71.90;;;;;;1902998;75;20194;-88
2021/08/06 10:10:11;;;;;;;;;;;33.30;72.00;;;;;;1809777;76;20144;-85
2021/08/06 10:12:41;;;;;;;;;;;33.30;71.90;;;;;;1803387;77;20172;-85
2021/08/06 10:15:11;;;;;;;;;;;33.30;72.20;;;;;;1845397;75;20157;-87
2021/08/06 10:17:41;;;;;;;;;;;33.10;71.90;;;;;;1824397;75;20249;-88
2021/08/06 10:20:21;;;;;;;;;;;33.10;72.00;;;;;;1845395;75;20205;-87
2021/08/06 10:22:48;;;;;;;;;;;33.10;72.40;;;;;;1815420;76;20259;-88
2021/08/06 10:25:19;;;;;;;;;;;33.00;72.50;;;;;;1837676;75;20085;-86
2021/08/06 10:27:50;;;;;;;;;;;33.10;72.70;;;;;;1815661;78;20406;-91
2021/08/06 10:30:23;;;;;;;;;;;33.10;73.00;;;;;;1817509;78;20208;-89
2021/08/06 10:32:55;;;;;;;;;;;33.00;73.20;;;;;;1826708;78;20155;-90
2021/08/06 10:35:25;;;;;;;;;;;33.10;73.00;;;;;;1822639;78;20174;-91
2021/08/06 10:37:57;;;;;;;;;;;33.00;73.00;;;;;;1824073;78;20205;-92
2021/08/06 10:40:28;;;;;;;;;;;33.00;72.60;;;;;;1845567;78;20184;-88
2021/08/06 10:42:58;;;;;;;;;;;33.00;72.60;;;;;;1843832;76;20257;-85
2021/08/06 10:45:29;;;;;;;;;;;32.90;72.60;;;;;;1842863;75;20178;-87
2021/08/06 10:47:59;;;;;;;;;;;33.00;71.50;;;;;;1807743;76;20197;-89
2021/08/06 10:50:29;;;;;;;;;;;33.10;72.50;;;;;;1816415;78;20177;-89
2021/08/06 10:53:00;;;;;;;;;;;33.10;72.70;;;;;;1843366;76;20634;-93
2021/08/06 10:55:30;;;;;;;;;;;32.80;72.90;;;;;;1901181;74;20167;-91
2021/08/06 10:58:00;;;;;;;;;;;32.80;73.20;;;;;;1886526;74;20216;-90
2021/08/06 11:00:30;;;;;;;;;;;33.00;73.80;;;;;;1887345;74;20146;-90
2021/08/06 11:03:03;;;;;;;;;;;32.80;74.10;;;;;;1891529;74;20201;-92
2021/08/06 11:05:34;;;;;;;;;;;32.90;74.70;;;;;;1851311;76;20196;-91
2021/08/06 11:08:05;;;;;;;;;;;32.70;74.90;;;;;;1886765;74;20221;-94
2021/08/06 11:10:39;;;;;;;;;;;32.60;75.10;;;;;;1886802;74;20488;-88
2021/08/06 11:13:10;;;;;;;;;;;32.70;75.60;;;;;;1828631;76;20109;-93
2021/08/06 11:15:41;;;;;;;;;;;32.80;75.20;;;;;;1819052;77;20237;-92
2021/08/06 11:18:17;;;;;;;;;;;32.60;74.70;;;;;;1822401;77;20241;-94
2021/08/06 11:20:44;;;;;;;;;;;32.60;74.90;;;;;;1816204;77;20222;-87
2021/08/06 11:23:15;;;;;;;;;;;32.60;75.30;;;;;;1816452;77;20235;-82
2021/08/06 11:25:45;;;;;;;;;;;32.50;75.40;;;;;;1821168;77;20243;-82
2021/08/06 11:28:17;;;;;;;;;;;32.50;75.50;;;;;;1811070;77;20198;-91
2021/08/06 11:30:48;;;;;;;;;;;32.40;75.80;;;;;;1794937;78;20243;-88
2021/08/06 11:33:19;;;;;;;;;;;32.40;76.00;;;;;;1837969;77;20156;-89
2021/08/06 11:35:49;;;;;;;;;;;32.40;76.30;;;;;;1823399;77;20200;-89
2021/08/06 11:38:23;;;;;;;;;;;32.40;76.60;;;;;;1823498;77;20126;-88
2021/08/06 11:40:57;;;;;;;;;;;32.30;76.60;;;;;;1813730;76;20449;-89
2021/08/06 11:43:31;;;;;;;;;;;32.30;77.00;;;;;;1814120;77;20202;-90
2021/08/06 11:46:03;;;;;;;;;;;32.30;77.20;;;;;;1797796;78;20183;-88
2021/08/06 11:48:37;;;;;;;;;;;32.30;77.20;;;;;;1841589;77;20244;-89
2021/08/06 11:51:07;;;;;;;;;;;32.20;77.40;;;;;;1834514;77;20267;-88
2021/08/06 11:53:37;;;;;;;;;;;32.20;77.80;;;;;;1819694;77;20265;-89
2021/08/06 11:56:08;;;;;;;;;;;32.10;77.70;;;;;;1832769;76;20203;-88
2021/08/06 11:58:39;;;;;;;;;;;32.10;77.80;;;;;;1832189;76;20732;-89
2021/08/06 12:01:10;;;;;;;;;;;32.10;78.00;;;;;;1886862;74;20506;-87
2021/08/06 12:03:47;;;;;;;;;;;32.00;77.90;;;;;;1876521;74;20442;-88
2021/08/06 12:06:17;;;;;;;;;;;32.00;77.90;;;;;;1883748;74;20240;-89
2021/08/06 12:08:48;;;;;;;;;;;32.00;77.90;;;;;;1891831;74;20196;-89
2021/08/06 12:11:19;;;;;;;;;;;32.00;77.80;;;;;;1885948;74;20220;-88
2021/08/06 12:13:50;;;;;;;;;;;32.00;77.80;;;;;;1891907;74;20430;-88
2021/08/06 12:16:24;;;;;;;;;;;31.90;77.80;;;;;;1885003;74;20255;-89
2021/08/06 12:18:55;;;;;;;;;;;31.90;78.10;;;;;;1838012;76;20212;-89
2021/08/06 12:21:30;;;;;;;;;;;31.90;78.10;;;;;;1822752;77;20202;-88
2021/08/06 12:24:01;;;;;;;;;;;31.80;78.20;;;;;;1824777;77;20240;-88
2021/08/06 12:26:31;;;;;;;;;;;31.80;78.30;;;;;;1824292;77;20216;-88
2021/08/06 12:29:09;;;;;;;;;;;31.80;78.50;;;;;;1805794;78;20559;-88
2021/08/06 12:31:35;;;;;;;;;;;31.80;78.60;;;;;;1812703;77;20169;-89
2021/08/06 12:34:06;;;;;;;;;;;31.80;78.60;;;;;;1796713;78;20789;-89
2021/08/06 12:36:37;;;;;;;;;;;31.70;78.80;;;;;;1815032;78;20749;-88
2021/08/06 12:39:08;;;;;;;;;;;31.70;79.10;;;;;;1816989;78;20217;-87
2021/08/06 12:41:42;;;;;;;;;;;31.70;79.30;;;;;;1812306;77;20211;-87
2021/08/06 12:44:13;;;;;;;;;;;31.70;79.30;;;;;;1821222;78;20154;-89
2021/08/06 12:46:44;;;;;;;;;;;31.60;79.20;;;;;;1814280;78;20243;-88
2021/08/06 12:49:13;;;;;;;;;;;31.60;79.60;;;;;;1822904;78;20221;-88
2021/08/06 12:51:44;;;;;;;;;;;31.60;79.60;;;;;;1823541;77;20178;-92
2021/08/06 12:54:15;;;;;;;;;;;31.60;79.90;;;;;;1815600;78;20271;-94
2021/08/06 12:56:47;;;;;;;;;;;31.60;79.90;;;;;;1817193;78;20153;-91
2021/08/06 12:59:18;;;;;;;;;;;31.50;80.10;;;;;;1832203;78;20208;-91
2021/08/06 13:01:48;;;;;;;;;;;31.50;80.20;;;;;;1837786;77;20198;-90
2021/08/06 13:04:49;;;;;;;;;;;31.40;80.10;;;;;;1877246;76;20241;-93
2021/08/06 13:07:18;;;;;;;;;;;31.40;80.20;;;;;;1878215;74;20170;-91
2021/08/06 13:09:48;;;;;;;;;;;31.40;80.30;;;;;;1879510;74;20195;-93
2021/08/06 13:12:19;;;;;;;;;;;31.40;80.40;;;;;;1879148;76;20236;-93
2021/08/06 13:14:49;;;;;;;;;;;31.30;80.30;;;;;;1883123;76;20192;-94
2021/08/06 13:17:20;;;;;;;;;;;31.30;80.60;;;;;;1875109;76;20781;-93
2021/08/06 13:19:49;;;;;;;;;;;31.30;80.60;;;;;;1878337;74;20278;-92
2021/08/06 13:22:20;;;;;;;;;;;31.30;80.80;;;;;;1833152;76;20453;-93
2021/08/06 13:24:50;;;;;;;;;;;31.20;80.90;;;;;;1811121;78;20260;-93
2021/08/06 13:27:19;;;;;;;;;;;31.20;80.90;;;;;;1877876;76;20253;-92
2021/08/06 13:29:50;;;;;;;;;;;31.20;80.90;;;;;;1873975;74;20708;-93
2021/08/06 13:32:24;;;;;;;;;;;31.20;81.00;;;;;;1874813;74;20273;-93
2021/08/06 13:34:54;;;;;;;;;;;31.10;81.00;;;;;;1881246;74;20279;-89
2021/08/06 13:40:37;;;;;;;;;;;;;;;;;;;;;
2021/08/06 13:43:02;;;;;;;;;;;31.10;81.10;;;;;;1852429;76;20272;-91
2021/08/06 13:45:32;;;;;;;;;;;31.10;81.00;;;;;;1852916;76;20176;-90
2021/08/06 13:48:04;;;;;;;;;;;31.10;81.20;;;;;;1852006;76;20256;-92
2021/08/06 13:50:36;;;;;;;;;;;31.10;81.20;;;;;;1804460;79;20372;-90
2021/08/06 13:53:17;;;;;;;;;;;31.10;81.40;;;;;;1849990;77;20208;-92
2021/08/06 13:55:47;;;;;;;;;;;31.00;81.20;;;;;;1849675;77;20347;-93
2021/08/06 13:58:18;;;;;;;;;;;31.00;81.20;;;;;;1852738;76;20250;-91
2021/08/06 14:00:48;;;;;;;;;;;31.00;81.50;;;;;;1851354;77;20384;-92
2021/08/06 14:03:20;;;;;;;;;;;31.00;81.60;;;;;;1853158;77;20355;-92
2021/08/06 14:05:50;;;;;;;;;;;31.00;81.40;;;;;;1850497;76;20239;-91
2021/08/06 14:08:20;;;;;;;;;;;30.90;81.50;;;;;;1848963;77;20664;-92
2021/08/06 14:10:50;;;;;;;;;;;30.90;81.60;;;;;;1849022;77;20160;-93
2021/08/06 14:13:19;;;;;;;;;;;30.90;81.60;;;;;;1843633;77;20188;-90
2021/08/06 14:15:49;;;;;;;;;;;30.90;82.10;;;;;;1860406;76;20246;-92
2021/08/06 14:18:18;;;;;;;;;;;30.90;82.00;;;;;;1876430;74;20237;-93
2021/08/06 14:26:25;;;;;;;;;;;30.80;82.60;;;;;;1783507;79;20189;-93
2021/08/06 14:28:54;;;;;;;;;;;30.80;82.90;;;;;;1795562;79;20205;-94
2021/08/06 14:31:24;;;;;;;;;;;30.80;83.00;;;;;;1795489;79;20185;-92
2021/08/06 14:33:54;;;;;;;;;;;30.80;83.10;;;;;;1796975;79;20228;-91
2021/08/06 14:36:27;;;;;;;;;;;30.70;83.20;;;;;;1790223;78;20186;-93
2021/08/06 14:38:58;;;;;;;;;;;30.70;83.60;;;;;;1789874;79;20254;-94
2021/08/06 14:41:31;;;;;;;;;;;30.70;83.60;;;;;;1790348;78;20218;-93
2021/08/06 14:44:04;;;;;;;;;;;30.70;83.90;;;;;;1790433;78;20272;-92
2021/08/06 14:46:35;;;;;;;;;;;30.60;83.90;;;;;;1787306;79;20237;-91
2021/08/06 14:49:11;;;;;;;;;;;30.60;84.30;;;;;;1790027;79;20239;-93
2021/08/06 14:51:41;;;;;;;;;;;30.60;84.40;;;;;;1789942;79;20166;-93
2021/08/06 14:54:13;;;;;;;;;;;30.50;84.70;;;;;;1788993;79;20250;-94
2021/08/06 14:56:53;;;;;;;;;;;30.50;84.80;;;;;;1791126;78;20198;-91
2021/08/06 14:59:25;;;;;;;;;;;30.50;85.10;;;;;;1789661;79;20431;-93